createdAt,value
2018-05-12T00:00:25.338Z,91.48
2018-05-12T00:01:35.488Z,90.10
2018-05-12T00:02:41.690Z,89.37
2018-05-12T00:03:48.115Z,89.00
2018-05-12T00:04:55.149Z,88.98
2018-05-12T00:06:00.994Z,88.73
2018-05-12T00:07:07.308Z,88.93
2018-05-12T00:08:14.273Z,88.63
2018-05-12T00:09:20.572Z,88.23
2018-05-12T00:10:27.801Z,87.98
2018-05-12T00:11:34.719Z,87.70
2018-05-12T00:12:41.401Z,89.70
2018-05-12T00:13:47.722Z,90.20
2018-05-12T00:14:54.677Z,90.80
2018-05-12T00:16:01.123Z,90.40
2018-05-12T00:17:07.388Z,89.79
2018-05-12T00:18:13.707Z,89.96
2018-05-12T00:19:21.580Z,91.63
2018-05-12T00:20:28.179Z,93.40
2018-05-12T00:21:40.105Z,95.37
2018-05-12T00:22:47.289Z,96.60
2018-05-12T00:23:53.904Z,97.67
2018-05-12T00:25:00.230Z,96.97
2018-05-12T00:26:06.509Z,95.96
2018-05-12T00:27:14.074Z,94.67
2018-05-12T00:28:21.197Z,93.32
2018-05-12T00:29:27.506Z,92.43
2018-05-12T00:30:33.763Z,92.73
2018-05-12T00:31:39.990Z,92.95
2018-05-12T00:32:46.317Z,92.02
2018-05-12T00:33:53.270Z,92.09
2018-05-12T00:35:01.044Z,92.19
2018-05-12T00:36:07.574Z,91.68
2018-05-12T00:37:14.426Z,91.84
2018-05-12T00:38:22.244Z,93.19
2018-05-12T00:39:29.206Z,94.08
2018-05-12T00:40:35.505Z,94.06
2018-05-12T00:41:41.816Z,94.65
2018-05-12T00:42:48.346Z,93.36
2018-05-12T00:43:55.631Z,92.77
2018-05-12T00:45:03.990Z,92.34
2018-05-12T00:46:12.093Z,92.73
2018-05-12T00:47:18.546Z,93.94
2018-05-12T00:48:24.957Z,95.32
2018-05-12T00:49:31.257Z,96.00
2018-05-12T00:50:38.087Z,97.54
2018-05-12T00:51:45.277Z,98.26
2018-05-12T00:53:13.518Z,98.51
2018-05-12T00:54:19.776Z,99.40
2018-05-12T00:55:25.594Z,100.00
2018-05-12T00:56:32.986Z,100.00
2018-05-12T00:57:39.250Z,100.00
2018-05-12T00:58:45.570Z,99.11
2018-05-12T00:59:51.898Z,99.62
2018-05-12T01:00:58.561Z,100.00
2018-05-12T01:02:06.497Z,100.00
2018-05-12T01:03:15.016Z,100.00
2018-05-12T01:04:21.236Z,99.98
2018-05-12T01:05:27.705Z,99.04
2018-05-12T01:06:33.638Z,98.31
2018-05-12T01:07:40.463Z,97.86
2018-05-12T01:08:47.106Z,98.07
2018-05-12T01:09:53.413Z,98.41
2018-05-12T01:11:00.349Z,98.06
2018-05-12T01:12:05.600Z,97.36
2018-05-12T01:13:11.997Z,96.99
2018-05-12T01:14:17.990Z,97.18
2018-05-12T01:15:24.431Z,97.76
2018-05-12T01:16:30.630Z,97.80
2018-05-12T01:17:37.247Z,97.94
2018-05-12T01:18:43.817Z,98.40
2018-05-12T01:19:51.550Z,97.84
2018-05-12T01:20:58.147Z,96.93
2018-05-12T01:22:05.000Z,96.07
2018-05-12T01:23:11.501Z,94.89
2018-05-12T01:24:18.041Z,94.22
2018-05-12T01:25:24.852Z,94.05
2018-05-12T01:26:31.514Z,93.83
2018-05-12T01:27:38.456Z,93.50
2018-05-12T01:28:44.776Z,93.47
2018-05-12T01:29:51.606Z,93.59
2018-05-12T01:30:58.274Z,93.71
2018-05-12T01:32:04.326Z,93.67
2018-05-12T01:33:10.639Z,93.49
2018-05-12T01:34:17.900Z,94.17
2018-05-12T01:35:24.209Z,95.41
2018-05-12T01:36:30.658Z,96.69
2018-05-12T01:37:36.902Z,97.86
2018-05-12T01:38:43.233Z,97.77
2018-05-12T01:39:49.560Z,97.53
2018-05-12T01:40:56.332Z,96.45
2018-05-12T01:42:03.305Z,95.80
2018-05-12T01:43:09.642Z,95.56
2018-05-12T01:44:15.945Z,95.83
2018-05-12T01:45:22.451Z,95.25
2018-05-12T01:46:28.666Z,95.26
2018-05-12T01:47:35.085Z,96.44
2018-05-12T01:48:41.960Z,97.57
2018-05-12T01:49:48.317Z,97.61
2018-05-12T01:50:54.577Z,97.37
2018-05-12T01:52:03.304Z,96.55
2018-05-12T01:53:09.562Z,96.00
2018-05-12T01:54:16.101Z,95.64
2018-05-12T01:55:22.321Z,96.36
2018-05-12T01:56:28.652Z,97.71
2018-05-12T01:57:36.637Z,99.34
2018-05-12T01:58:43.545Z,99.92
2018-05-12T01:59:49.626Z,100.00
2018-05-12T02:00:56.577Z,99.43
2018-05-12T02:02:02.818Z,98.21
2018-05-12T02:03:09.694Z,97.05
2018-05-12T02:04:16.057Z,95.91
2018-05-12T02:05:23.686Z,94.74
2018-05-12T02:06:29.868Z,94.07
2018-05-12T02:07:36.413Z,93.94
2018-05-12T02:08:42.629Z,93.83
2018-05-12T02:09:50.513Z,93.61
2018-05-12T02:10:56.753Z,95.43
2018-05-12T02:12:03.030Z,96.08
2018-05-12T02:13:10.174Z,97.48
2018-05-12T02:14:17.522Z,98.06
2018-05-12T02:15:24.220Z,99.13
2018-05-12T02:16:30.496Z,99.90
2018-05-12T02:17:36.828Z,100.00
2018-05-12T02:18:43.152Z,100.00
2018-05-12T02:19:49.175Z,100.00
2018-05-12T02:20:55.486Z,100.00
2018-05-12T02:22:01.760Z,100.00
2018-05-12T02:23:08.008Z,100.00
2018-05-12T02:24:15.223Z,98.65
2018-05-12T02:25:21.558Z,97.92
2018-05-12T02:26:27.790Z,97.71
2018-05-12T02:27:34.942Z,97.56
2018-05-12T02:28:43.340Z,97.20
2018-05-12T02:29:50.307Z,97.92
2018-05-12T02:30:56.579Z,99.04
2018-05-12T02:32:02.558Z,99.69
2018-05-12T02:33:08.880Z,99.95
2018-05-12T02:34:15.191Z,99.22
2018-05-12T02:35:21.519Z,98.69
2018-05-12T02:36:27.727Z,98.23
2018-05-12T02:37:33.696Z,97.97
2018-05-12T02:38:40.009Z,98.91
2018-05-12T02:39:46.219Z,98.25
2018-05-12T02:40:52.275Z,97.85
2018-05-12T02:41:58.245Z,97.55
2018-05-12T02:43:04.350Z,99.55
2018-05-12T02:44:11.813Z,100.00
2018-05-12T02:45:18.206Z,100.00
2018-05-12T02:46:24.310Z,100.00
2018-05-12T02:47:30.627Z,100.00
2018-05-12T02:48:37.069Z,100.00
2018-05-12T02:49:43.340Z,100.00
2018-05-12T02:50:49.750Z,100.00
2018-05-12T02:51:55.989Z,100.00
2018-05-12T02:53:02.311Z,100.00
2018-05-12T02:54:08.617Z,100.00
2018-05-12T02:55:15.489Z,99.04
2018-05-12T02:56:22.441Z,97.93
2018-05-12T02:57:29.310Z,97.46
2018-05-12T02:58:35.614Z,96.96
2018-05-12T02:59:41.885Z,97.11
2018-05-12T03:00:48.229Z,96.75
2018-05-12T03:01:54.542Z,96.20
2018-05-12T03:03:00.873Z,96.75
2018-05-12T03:04:07.149Z,98.40
2018-05-12T03:05:14.036Z,100.00
2018-05-12T03:06:21.460Z,100.00
2018-05-12T03:07:27.813Z,100.00
2018-05-12T03:08:34.157Z,100.00
2018-05-12T03:09:40.444Z,100.00
2018-05-12T03:10:46.862Z,100.00
2018-05-12T03:11:53.182Z,100.00
2018-05-12T03:12:59.320Z,100.00
2018-05-12T03:14:05.681Z,100.00
2018-05-12T03:15:12.002Z,100.00
2018-05-12T03:16:18.353Z,100.00
2018-05-12T03:17:24.325Z,100.00
2018-05-12T03:18:30.653Z,100.00
2018-05-12T03:19:38.005Z,100.00
2018-05-12T03:20:45.259Z,100.00
2018-05-12T03:21:52.044Z,100.00
2018-05-12T03:22:58.330Z,100.00
2018-05-12T03:24:05.343Z,100.00
2018-05-12T03:25:11.682Z,100.00
2018-05-12T03:26:17.660Z,100.00
2018-05-12T03:27:24.127Z,100.00
2018-05-12T03:28:30.098Z,100.00
2018-05-12T03:29:37.329Z,100.00
2018-05-12T03:30:43.841Z,100.00
2018-05-12T03:31:50.163Z,100.00
2018-05-12T03:32:56.483Z,100.00
2018-05-12T03:34:02.888Z,100.00
2018-05-12T03:35:09.218Z,100.00
2018-05-12T03:36:16.530Z,100.00
2018-05-12T03:37:23.353Z,100.00
2018-05-12T03:38:30.602Z,100.00
2018-05-12T03:39:37.792Z,100.00
2018-05-12T03:40:44.309Z,100.00
2018-05-12T03:41:50.600Z,100.00
2018-05-12T03:42:56.649Z,100.00
2018-05-12T03:44:02.969Z,100.00
2018-05-12T03:45:09.047Z,100.00
2018-05-12T03:46:15.317Z,100.00
2018-05-12T03:47:21.589Z,100.00
2018-05-12T03:48:29.758Z,100.00
2018-05-12T03:49:36.074Z,100.00
2018-05-12T03:50:43.749Z,100.00
2018-05-12T03:51:51.079Z,100.00
2018-05-12T03:52:57.884Z,100.00
2018-05-12T03:54:04.215Z,100.00
2018-05-12T03:55:10.523Z,100.00
2018-05-12T03:56:16.820Z,100.00
2018-05-12T03:57:23.129Z,100.00
2018-05-12T03:58:29.565Z,100.00
2018-05-12T03:59:35.966Z,100.00
2018-05-12T04:00:42.323Z,100.00
2018-05-12T04:01:48.613Z,100.00
2018-05-12T04:02:54.882Z,100.00
2018-05-12T04:04:01.203Z,100.00
2018-05-12T04:05:18.355Z,100.00
2018-05-12T04:06:36.425Z,100.00
2018-05-12T04:07:53.778Z,100.00
2018-05-12T04:09:10.809Z,100.00
2018-05-12T04:10:19.912Z,100.00
2018-05-12T04:11:37.171Z,100.00
2018-05-12T04:12:43.940Z,100.00
2018-05-12T04:13:50.444Z,100.00
2018-05-12T04:14:56.673Z,100.00
2018-05-12T04:16:02.943Z,100.00
2018-05-12T04:17:09.297Z,100.00
2018-05-12T04:18:15.554Z,100.00
2018-05-12T04:19:21.884Z,100.00
2018-05-12T04:20:28.179Z,100.00
2018-05-12T04:21:34.437Z,100.00
2018-05-12T04:22:40.741Z,100.00
2018-05-12T04:23:47.037Z,100.00
2018-05-12T04:24:53.381Z,100.00
2018-05-12T04:26:00.545Z,100.00
2018-05-12T04:27:07.700Z,100.00
2018-05-12T04:28:14.634Z,100.00
2018-05-12T04:29:21.549Z,100.00
2018-05-12T04:30:27.595Z,100.00
2018-05-12T04:31:34.035Z,100.00
2018-05-12T04:32:40.331Z,100.00
2018-05-12T04:33:46.603Z,100.00
2018-05-12T04:34:52.944Z,100.00
2018-05-12T04:35:59.227Z,100.00
2018-05-12T04:37:05.531Z,100.00
2018-05-12T04:38:11.854Z,100.00
2018-05-12T04:39:18.244Z,100.00
2018-05-12T04:40:24.556Z,100.00
2018-05-12T04:41:30.897Z,100.00
2018-05-12T04:42:37.216Z,100.00
2018-05-12T04:43:44.153Z,100.00
2018-05-12T04:44:51.266Z,100.00
2018-05-12T04:45:57.560Z,100.00
2018-05-12T04:47:04.042Z,100.00
2018-05-12T04:48:11.270Z,100.00
2018-05-12T04:49:17.518Z,100.00
2018-05-12T04:50:23.878Z,100.00
2018-05-12T04:51:31.086Z,100.00
2018-05-12T04:52:37.399Z,100.00
2018-05-12T04:53:43.794Z,100.00
2018-05-12T04:54:50.134Z,100.00
2018-05-12T04:55:56.426Z,100.00
2018-05-12T04:57:02.753Z,100.00
2018-05-12T04:58:09.269Z,100.00
2018-05-12T04:59:15.574Z,100.00
2018-05-12T05:00:21.881Z,100.00
2018-05-12T05:01:29.730Z,100.00
2018-05-12T05:02:36.055Z,100.00
2018-05-12T05:03:42.536Z,100.00
2018-05-12T05:04:48.849Z,100.00
2018-05-12T05:05:55.201Z,100.00
2018-05-12T05:07:01.474Z,100.00
2018-05-12T05:08:07.859Z,100.00
2018-05-12T05:09:14.653Z,100.00
2018-05-12T05:10:21.676Z,100.00
2018-05-12T05:11:27.989Z,100.00
2018-05-12T05:12:33.938Z,100.00
2018-05-12T05:13:40.287Z,100.00
2018-05-12T05:14:46.591Z,100.00
2018-05-12T05:15:52.913Z,100.00
2018-05-12T05:16:59.149Z,100.00
2018-05-12T05:18:06.265Z,100.00
2018-05-12T05:19:17.038Z,100.00
2018-05-12T05:20:23.229Z,100.00
2018-05-12T05:21:29.481Z,100.00
2018-05-12T05:22:35.598Z,100.00
2018-05-12T05:23:42.010Z,100.00
2018-05-12T05:24:48.312Z,100.00
2018-05-12T05:25:54.605Z,100.00
2018-05-12T05:27:01.499Z,100.00
2018-05-12T05:28:08.424Z,100.00
2018-05-12T05:29:14.766Z,100.00
2018-05-12T05:30:21.109Z,100.00
2018-05-12T05:31:27.386Z,100.00
2018-05-12T05:32:33.722Z,100.00
2018-05-12T05:33:40.065Z,100.00
2018-05-12T05:34:46.265Z,100.00
2018-05-12T05:35:53.992Z,100.00
2018-05-12T05:37:00.197Z,100.00
2018-05-12T05:38:06.181Z,100.00
2018-05-12T05:39:12.626Z,100.00
2018-05-12T05:40:18.897Z,100.00
2018-05-12T05:41:25.141Z,100.00
2018-05-12T05:42:31.452Z,100.00
2018-05-12T05:43:37.763Z,100.00
2018-05-12T05:44:44.878Z,100.00
2018-05-12T05:45:51.235Z,100.00
2018-05-12T05:46:57.493Z,100.00
2018-05-12T05:48:03.852Z,100.00
2018-05-12T05:49:10.153Z,100.00
2018-05-12T05:50:16.154Z,100.00
2018-05-12T05:51:23.609Z,100.00
2018-05-12T05:52:31.755Z,100.00
2018-05-12T05:53:38.165Z,100.00
2018-05-12T05:54:44.418Z,100.00
2018-05-12T05:55:50.701Z,100.00
2018-05-12T05:56:57.169Z,100.00
2018-05-12T05:58:03.428Z,100.00
2018-05-12T05:59:09.934Z,100.00
2018-05-12T06:00:15.622Z,100.00
2018-05-12T06:01:21.901Z,100.00
2018-05-12T06:02:30.372Z,100.00
2018-05-12T06:03:38.088Z,100.00
2018-05-12T06:04:44.360Z,100.00
2018-05-12T06:05:51.429Z,100.00
2018-05-12T06:07:00.862Z,100.00
2018-05-12T06:08:09.255Z,100.00
2018-05-12T06:09:16.505Z,100.00
2018-05-12T06:10:23.920Z,100.00
2018-05-12T06:11:30.418Z,100.00
2018-05-12T06:12:37.145Z,100.00
2018-05-12T06:13:49.179Z,100.00
2018-05-12T06:14:57.701Z,100.00
2018-05-12T06:16:05.066Z,100.00
2018-05-12T06:17:12.524Z,100.00
2018-05-12T06:18:24.245Z,100.00
2018-05-12T06:19:34.329Z,100.00
2018-05-12T06:20:41.182Z,100.00
2018-05-12T06:21:50.662Z,100.00
2018-05-12T06:22:57.085Z,100.00
2018-05-12T06:24:04.045Z,100.00
2018-05-12T06:25:12.218Z,100.00
2018-05-12T06:26:19.637Z,100.00
2018-05-12T06:27:26.486Z,100.00
2018-05-12T06:28:34.701Z,100.00
2018-05-12T06:29:41.602Z,100.00
2018-05-12T06:30:49.340Z,100.00
2018-05-12T06:31:56.589Z,100.00
2018-05-12T06:33:03.403Z,100.00
2018-05-12T06:34:11.224Z,100.00
2018-05-12T06:35:18.194Z,100.00
2018-05-12T06:36:28.218Z,100.00
2018-05-12T06:37:36.735Z,100.00
2018-05-12T06:38:44.235Z,100.00
2018-05-12T06:39:51.306Z,100.00
2018-05-12T06:40:58.010Z,100.00
2018-05-12T06:42:05.785Z,100.00
2018-05-12T06:43:13.567Z,100.00
2018-05-12T06:44:22.898Z,100.00
2018-05-12T06:45:30.916Z,100.00
2018-05-12T06:46:38.079Z,100.00
2018-05-12T06:47:45.335Z,100.00
2018-05-12T06:48:52.973Z,100.00
2018-05-12T06:50:00.112Z,100.00
2018-05-12T06:51:09.154Z,100.00
2018-05-12T06:52:16.169Z,100.00
2018-05-12T06:53:23.160Z,100.00
2018-05-12T06:54:29.841Z,100.00
2018-05-12T06:55:37.818Z,100.00
2018-05-12T06:56:44.507Z,100.00
2018-05-12T06:57:51.125Z,100.00
2018-05-12T06:58:58.771Z,100.00
2018-05-12T07:00:07.942Z,100.00
2018-05-12T07:01:16.880Z,100.00
2018-05-12T07:02:23.619Z,100.00
2018-05-12T07:03:29.953Z,100.00
2018-05-12T07:04:36.247Z,100.00
2018-05-12T07:05:42.520Z,100.00
2018-05-12T07:06:49.318Z,100.00
2018-05-12T07:07:56.014Z,100.00
2018-05-12T07:09:03.473Z,100.00
2018-05-12T07:10:10.739Z,100.00
2018-05-12T07:11:17.664Z,100.00
2018-05-12T07:12:24.832Z,100.00
2018-05-12T07:13:31.706Z,100.00
2018-05-12T07:14:38.571Z,100.00
2018-05-12T07:15:45.519Z,100.00
2018-05-12T07:16:52.859Z,100.00
2018-05-12T07:17:59.476Z,100.00
2018-05-12T07:19:05.818Z,100.00
2018-05-12T07:20:12.653Z,100.00
2018-05-12T07:21:18.727Z,100.00
2018-05-12T07:22:25.926Z,100.00
2018-05-12T07:23:32.401Z,100.00
2018-05-12T07:24:39.192Z,100.00
2018-05-12T07:25:46.439Z,100.00
2018-05-12T07:26:53.755Z,100.00
2018-05-12T07:28:01.170Z,100.00
2018-05-12T07:29:08.329Z,100.00
2018-05-12T07:30:15.254Z,100.00
2018-05-12T07:31:22.467Z,100.00
2018-05-12T07:32:29.932Z,100.00
2018-05-12T07:33:38.069Z,100.00
2018-05-12T07:34:45.918Z,100.00
2018-05-12T07:35:52.225Z,100.00
2018-05-12T07:37:00.184Z,100.00
2018-05-12T07:38:07.212Z,100.00
2018-05-12T07:39:13.990Z,100.00
2018-05-12T07:40:21.300Z,99.19
2018-05-12T07:41:29.112Z,99.02
2018-05-12T07:42:35.783Z,99.62
2018-05-12T07:43:41.772Z,100.00
2018-05-12T07:44:48.148Z,99.23
2018-05-12T07:45:54.463Z,99.61
2018-05-12T07:47:00.722Z,100.00
2018-05-12T07:48:07.594Z,100.00
2018-05-12T07:49:14.679Z,98.51
2018-05-12T07:50:21.022Z,98.03
2018-05-12T07:51:27.238Z,99.50
2018-05-12T07:52:33.542Z,98.59
2018-05-12T07:53:39.831Z,97.82
2018-05-12T07:54:46.242Z,97.81
2018-05-12T07:55:52.585Z,98.52
2018-05-12T07:56:58.863Z,98.23
2018-05-12T07:58:05.397Z,96.31
2018-05-12T07:59:11.791Z,96.26
2018-05-12T08:00:18.139Z,96.81
2018-05-12T08:01:24.933Z,98.07
2018-05-12T08:02:31.252Z,97.26
2018-05-12T08:03:37.582Z,96.03
2018-05-12T08:04:44.123Z,96.35
2018-05-12T08:05:50.410Z,96.26
2018-05-12T08:06:56.702Z,95.05
2018-05-12T08:08:03.005Z,94.99
2018-05-12T08:09:09.351Z,95.46
2018-05-12T08:10:15.675Z,94.45
2018-05-12T08:11:24.617Z,96.43
2018-05-12T08:12:33.699Z,95.44
2018-05-12T08:13:43.235Z,96.47
2018-05-12T08:14:55.406Z,95.89
2018-05-12T08:16:04.859Z,95.46
2018-05-12T08:17:14.923Z,93.42
2018-05-12T08:18:23.066Z,92.50
2018-05-12T08:19:34.192Z,93.90
2018-05-12T08:20:43.449Z,93.11
2018-05-12T08:21:52.162Z,93.62
2018-05-12T08:23:04.598Z,93.09
2018-05-12T08:24:15.207Z,92.78
2018-05-12T08:25:23.309Z,93.35
2018-05-12T08:26:32.540Z,91.87
2018-05-12T08:27:41.581Z,91.91
2018-05-12T08:28:49.197Z,91.75
2018-05-12T08:29:58.722Z,92.26
2018-05-12T08:31:05.612Z,92.25
2018-05-12T08:32:11.820Z,90.64
2018-05-12T08:33:18.105Z,90.32
2018-05-12T08:34:24.365Z,90.68
2018-05-12T08:35:31.620Z,91.11
2018-05-12T08:36:39.321Z,90.71
2018-05-12T08:37:47.985Z,89.68
2018-05-12T08:38:56.830Z,88.00
2018-05-12T08:40:06.554Z,87.13
2018-05-12T08:41:15.152Z,87.30
2018-05-12T08:42:23.204Z,87.84
2018-05-12T08:43:31.851Z,87.12
2018-05-12T08:44:39.076Z,87.24
2018-05-12T08:45:45.508Z,86.64
2018-05-12T08:46:52.673Z,85.66
2018-05-12T08:47:59.703Z,86.05
2018-05-12T08:49:08.486Z,87.54
2018-05-12T08:50:15.335Z,86.34
2018-05-12T08:51:21.942Z,85.78
2018-05-12T08:52:28.282Z,87.62
2018-05-12T08:53:34.666Z,87.83
2018-05-12T08:54:40.906Z,88.07
2018-05-12T08:55:47.945Z,86.07
2018-05-12T08:56:54.371Z,85.80
2018-05-12T08:58:00.447Z,87.38
2018-05-12T08:59:06.995Z,85.81
2018-05-12T09:00:15.692Z,85.33
2018-05-12T09:01:26.646Z,85.75
2018-05-12T09:02:33.354Z,87.20
2018-05-12T09:03:40.438Z,85.28
2018-05-12T09:04:46.658Z,85.61
2018-05-12T09:05:53.060Z,85.14
2018-05-12T09:06:59.401Z,87.36
2018-05-12T09:08:05.618Z,84.78
2018-05-12T09:09:11.921Z,84.15
2018-05-12T09:10:18.149Z,83.50
2018-05-12T09:11:24.957Z,84.58
2018-05-12T09:12:31.218Z,85.51
2018-05-12T09:13:37.527Z,83.66
2018-05-12T09:14:43.875Z,83.43
2018-05-12T09:15:50.136Z,84.86
2018-05-12T09:16:56.556Z,85.07
2018-05-12T09:18:02.875Z,86.18
2018-05-12T09:19:10.770Z,86.26
2018-05-12T09:20:19.255Z,83.19
2018-05-12T09:21:26.309Z,83.72
2018-05-12T09:22:33.093Z,84.04
2018-05-12T09:23:39.466Z,83.16
2018-05-12T09:24:45.741Z,82.32
2018-05-12T09:25:51.855Z,80.13
2018-05-12T09:26:58.263Z,79.20
2018-05-12T09:28:04.737Z,80.44
2018-05-12T09:29:11.585Z,78.49
2018-05-12T09:30:18.618Z,78.00
2018-05-12T09:31:24.994Z,78.29
2018-05-12T09:32:31.290Z,79.63
2018-05-12T09:33:37.592Z,79.51
2018-05-12T09:34:44.819Z,80.37
2018-05-12T09:35:52.333Z,79.54
2018-05-12T09:36:58.602Z,78.75
2018-05-12T09:38:04.490Z,79.77
2018-05-12T09:39:10.790Z,81.15
2018-05-12T09:40:17.102Z,80.46
2018-05-12T09:41:23.446Z,79.82
2018-05-12T09:42:29.797Z,79.84
2018-05-12T09:43:36.225Z,79.86
2018-05-12T09:44:42.534Z,79.87
2018-05-12T09:45:48.852Z,79.48
2018-05-12T09:46:55.193Z,78.84
2018-05-12T09:48:02.241Z,77.27
2018-05-12T09:49:08.495Z,76.51
2018-05-12T09:50:15.413Z,73.65
2018-05-12T09:51:22.317Z,73.88
2018-05-12T09:52:28.690Z,72.41
2018-05-12T09:53:35.210Z,72.82
2018-05-12T09:54:41.526Z,73.16
2018-05-12T09:55:47.915Z,73.91
2018-05-12T09:56:54.253Z,74.08
2018-05-12T09:58:00.567Z,74.03
2018-05-12T09:59:06.769Z,72.88
2018-05-12T10:00:12.843Z,73.22
2018-05-12T10:01:19.158Z,75.23
2018-05-12T10:02:25.493Z,74.28
2018-05-12T10:03:31.764Z,75.32
2018-05-12T10:04:38.045Z,73.73
2018-05-12T10:05:44.304Z,72.65
2018-05-12T10:06:50.656Z,74.21
2018-05-12T10:07:56.904Z,73.18
2018-05-12T10:09:03.158Z,71.82
2018-05-12T10:10:09.481Z,74.16
2018-05-12T10:11:15.761Z,71.92
2018-05-12T10:12:22.151Z,75.46
2018-05-12T10:13:28.439Z,72.92
2018-05-12T10:14:34.702Z,72.88
2018-05-12T10:15:41.251Z,71.91
2018-05-12T10:16:47.761Z,71.95
2018-05-12T10:17:54.260Z,71.05
2018-05-12T10:19:00.607Z,72.11
2018-05-12T10:20:06.843Z,71.49
2018-05-12T10:21:12.858Z,70.43
2018-05-12T10:22:19.444Z,69.68
2018-05-12T10:23:25.959Z,71.09
2018-05-12T10:24:32.273Z,72.59
2018-05-12T10:25:38.552Z,73.58
2018-05-12T10:26:45.805Z,73.67
2018-05-12T10:27:52.972Z,73.76
2018-05-12T10:28:58.884Z,72.60
2018-05-12T10:30:05.097Z,71.44
2018-05-12T10:31:11.444Z,73.12
2018-05-12T10:32:17.776Z,72.22
2018-05-12T10:33:24.048Z,71.45
2018-05-12T10:34:30.390Z,70.40
2018-05-12T10:35:37.358Z,69.50
2018-05-12T10:36:43.623Z,70.12
2018-05-12T10:37:49.951Z,72.20
2018-05-12T10:38:56.296Z,69.62
2018-05-12T10:40:02.530Z,68.01
2018-05-12T10:41:10.264Z,68.54
2018-05-12T10:42:16.990Z,67.81
2018-05-12T10:43:23.815Z,67.94
2018-05-12T10:44:30.145Z,69.08
2018-05-12T10:45:36.473Z,68.50
2018-05-12T10:46:42.761Z,67.88
2018-05-12T10:47:49.118Z,68.79
2018-05-12T10:48:55.401Z,68.83
2018-05-12T10:50:01.683Z,68.99
2018-05-12T10:51:07.949Z,69.25
2018-05-12T10:52:14.234Z,68.19
2018-05-12T10:53:20.582Z,68.94
2018-05-12T10:54:26.877Z,69.60
2018-05-12T10:55:33.162Z,67.34
2018-05-12T10:56:40.116Z,67.79
2018-05-12T10:57:46.451Z,68.26
2018-05-12T10:58:52.956Z,67.81
2018-05-12T10:59:59.241Z,66.71
2018-05-12T11:01:05.539Z,67.82
2018-05-12T11:02:20.186Z,67.54
2018-05-12T11:03:26.595Z,68.14
2018-05-12T11:04:32.829Z,68.93
2018-05-12T11:05:39.091Z,71.19
2018-05-12T11:06:45.397Z,69.96
2018-05-12T11:07:52.217Z,69.15
2018-05-12T11:08:58.525Z,69.55
2018-05-12T11:10:04.828Z,68.03
2018-05-12T11:11:11.240Z,67.83
2018-05-12T11:12:17.455Z,68.18
2018-05-12T11:13:24.071Z,68.18
2018-05-12T11:14:31.017Z,66.81
2018-05-12T11:15:37.342Z,67.39
2018-05-12T11:16:43.582Z,66.44
2018-05-12T11:17:49.647Z,66.22
2018-05-12T11:18:55.935Z,67.45
2018-05-12T11:20:01.907Z,67.22
2018-05-12T11:21:08.172Z,67.45
2018-05-12T11:22:14.510Z,66.92
2018-05-12T11:23:21.017Z,66.78
2018-05-12T11:24:27.660Z,68.12
2018-05-12T11:25:35.894Z,69.67
2018-05-12T11:26:43.450Z,67.86
2018-05-12T11:27:49.954Z,67.37
2018-05-12T11:28:56.260Z,68.32
2018-05-12T11:30:02.596Z,66.93
2018-05-12T11:31:08.876Z,64.87
2018-05-12T11:32:15.206Z,66.19
2018-05-12T11:33:21.809Z,66.24
2018-05-12T11:34:28.641Z,66.83
2018-05-12T11:35:34.970Z,66.47
2018-05-12T11:36:41.256Z,67.67
2018-05-12T11:37:47.594Z,69.48
2018-05-12T11:38:54.044Z,66.82
2018-05-12T11:40:00.282Z,67.45
2018-05-12T11:41:06.920Z,66.73
2018-05-12T11:42:13.323Z,67.02
2018-05-12T11:43:19.763Z,67.22
2018-05-12T11:44:26.137Z,68.32
2018-05-12T11:45:32.587Z,67.90
2018-05-12T11:46:38.873Z,71.14
2018-05-12T11:47:45.219Z,69.74
2018-05-12T11:48:53.080Z,69.24
2018-05-12T11:49:59.819Z,68.69
2018-05-12T11:51:06.169Z,67.98
2018-05-12T11:52:12.440Z,66.77
2018-05-12T11:53:18.720Z,66.46
2018-05-12T11:54:25.272Z,66.58
2018-05-12T11:55:31.517Z,67.96
2018-05-12T11:56:37.950Z,67.68
2018-05-12T11:57:44.277Z,66.82
2018-05-12T11:58:50.591Z,67.21
2018-05-12T11:59:57.517Z,68.29
2018-05-12T12:01:03.798Z,68.37
2018-05-12T12:02:10.140Z,68.16
2018-05-12T12:03:16.463Z,69.47
2018-05-12T12:04:22.717Z,67.52
2018-05-12T12:05:29.946Z,66.57
2018-05-12T12:06:36.837Z,64.91
2018-05-12T12:07:43.099Z,65.05
2018-05-12T12:08:49.424Z,64.78
2018-05-12T12:09:55.732Z,64.71
2018-05-12T12:11:02.033Z,64.58
2018-05-12T12:12:08.342Z,65.28
2018-05-12T12:13:14.705Z,65.06
2018-05-12T12:14:21.755Z,65.42
2018-05-12T12:15:28.116Z,64.47
2018-05-12T12:16:34.444Z,64.79
2018-05-12T12:17:40.746Z,64.52
2018-05-12T12:18:47.228Z,64.24
2018-05-12T12:19:53.522Z,64.03
2018-05-12T12:21:00.414Z,63.87
2018-05-12T12:22:07.196Z,63.83
2018-05-12T12:23:13.638Z,64.46
2018-05-12T12:24:19.950Z,64.70
2018-05-12T12:25:26.271Z,64.60
2018-05-12T12:26:32.546Z,63.68
2018-05-12T12:27:39.003Z,63.07
2018-05-12T12:28:45.614Z,63.06
2018-05-12T12:29:51.882Z,62.65
2018-05-12T12:30:58.239Z,63.03
2018-05-12T12:32:04.483Z,62.45
2018-05-12T12:33:10.713Z,62.82
2018-05-12T12:34:17.060Z,62.18
2018-05-12T12:35:24.733Z,63.34
2018-05-12T12:36:31.447Z,63.84
2018-05-12T12:37:38.304Z,62.80
2018-05-12T12:38:44.345Z,62.52
2018-05-12T12:39:50.759Z,62.53
2018-05-12T12:40:56.820Z,63.10
2018-05-12T12:42:03.389Z,63.10
2018-05-12T12:43:09.678Z,63.49
2018-05-12T12:44:16.042Z,63.15
2018-05-12T12:45:22.438Z,63.87
2018-05-12T12:46:28.950Z,63.69
2018-05-12T12:47:35.232Z,63.24
2018-05-12T12:48:41.587Z,62.10
2018-05-12T12:49:47.901Z,62.05
2018-05-12T12:50:54.191Z,61.40
2018-05-12T12:52:00.500Z,61.44
2018-05-12T12:53:06.825Z,63.64
2018-05-12T12:54:13.147Z,61.78
2018-05-12T12:55:19.458Z,61.95
2018-05-12T12:56:25.949Z,61.62
2018-05-12T12:57:32.272Z,61.22
2018-05-12T12:58:38.606Z,61.68
2018-05-12T12:59:44.932Z,62.17
2018-05-12T13:00:51.158Z,62.70
2018-05-12T13:01:57.509Z,61.55
2018-05-12T13:03:03.483Z,60.80
2018-05-12T13:04:09.845Z,61.00
2018-05-12T13:05:16.163Z,61.38
2018-05-12T13:06:22.947Z,61.63
2018-05-12T13:07:29.261Z,60.40
2018-05-12T13:08:35.618Z,61.08
2018-05-12T13:09:41.942Z,60.68
2018-05-12T13:10:48.397Z,60.67
2018-05-12T13:11:54.727Z,60.18
2018-05-12T13:13:02.232Z,60.03
2018-05-12T13:14:08.972Z,62.40
2018-05-12T13:15:15.217Z,60.28
2018-05-12T13:16:22.092Z,60.67
2018-05-12T13:17:28.487Z,60.21
2018-05-12T13:18:35.377Z,60.47
2018-05-12T13:19:41.723Z,59.16
2018-05-12T13:20:48.014Z,59.19
2018-05-12T13:21:54.298Z,59.31
2018-05-12T13:23:01.193Z,59.98
2018-05-12T13:24:08.117Z,58.60
2018-05-12T13:25:14.526Z,58.21
2018-05-12T13:26:20.890Z,58.20
2018-05-12T13:27:28.013Z,57.71
2018-05-12T13:28:35.339Z,58.90
2018-05-12T13:29:42.369Z,58.14
2018-05-12T13:30:49.305Z,58.78
2018-05-12T13:31:55.613Z,57.95
2018-05-12T13:33:02.049Z,59.09
2018-05-12T13:34:08.855Z,57.61
2018-05-12T13:35:15.246Z,57.72
2018-05-12T13:36:21.817Z,57.30
2018-05-12T13:37:28.089Z,58.00
2018-05-12T13:38:34.394Z,57.18
2018-05-12T13:39:40.741Z,56.76
2018-05-12T13:40:46.997Z,55.97
2018-05-12T13:41:53.351Z,56.59
2018-05-12T13:42:59.650Z,58.30
2018-05-12T13:44:05.958Z,58.24
2018-05-12T13:45:12.301Z,58.88
2018-05-12T13:46:18.606Z,56.85
2018-05-12T13:47:24.929Z,57.69
2018-05-12T13:48:31.239Z,57.70
2018-05-12T13:49:37.541Z,56.75
2018-05-12T13:50:43.849Z,59.50
2018-05-12T13:51:50.130Z,56.00
2018-05-12T13:52:56.440Z,55.81
2018-05-12T13:54:02.798Z,54.81
2018-05-12T13:55:09.226Z,55.11
2018-05-12T13:56:15.520Z,55.64
2018-05-12T13:57:22.968Z,57.36
2018-05-12T13:58:29.432Z,56.92
2018-05-12T13:59:35.804Z,56.24
2018-05-12T14:00:42.069Z,55.73
2018-05-12T14:01:48.397Z,57.00
2018-05-12T14:02:54.717Z,56.82
2018-05-12T14:04:01.016Z,56.94
2018-05-12T14:05:07.347Z,55.60
2018-05-12T14:06:13.666Z,55.53
2018-05-12T14:07:19.986Z,56.02
2018-05-12T14:08:25.756Z,55.00
2018-05-12T14:09:32.147Z,54.75
2018-05-12T14:10:38.509Z,55.23